Terminal Aerodrome Forecast
Issued by NWS Brownsville, TX

Home | Current Version | Previous Version | Text Only | Print | Product List | Glossary On
Versions: 1 2 3 4 5 6 7 8 9 10 11 12 13 14 15 16 17
000
FTUS44 KBRO 221736
TAFMFE
TAF
KMFE 221736Z 2218/2318 12010KT P6SM BKN110
     FM222200 10012G18KT P6SM SCT040
     FM230000 10008KT P6SM SCT030
      TEMPO 2308/2312 BKN015
     FM231600 13008KT P6SM SCT030=

USA.gov is the U.S. government's official web portal to all federal, state and local government web resources and services.